Time;durP1;ratioP1;P1;durP2;ratioP2;P2;SDS_P1;SDS_P2;PMS_P1;PMS_P2;Temp;Humidity;BMP_temperature;BMP_pressure;BME280_temperature;BME280_humidity;BME280_pressure;Samples;Min_cycle;Max_cycle;Signal;HPM_P1;HPM_P2
2020/12/09 00:01:50;;;;;;;66.03;38.93;;;4.20;99.90;;;;;;4917649;29;20173;-82
2020/12/09 00:04:17;;;;;;;66.30;39.30;;;4.10;99.90;;;;;;4934444;29;20212;-82
2020/12/09 00:06:43;;;;;;;67.03;38.67;;;4.30;99.90;;;;;;4937193;29;20173;-81
2020/12/09 00:09:12;;;;;;;68.07;39.63;;;4.30;99.90;;;;;;4937370;29;20180;-83
2020/12/09 00:11:38;;;;;;;63.17;37.00;;;4.40;99.90;;;;;;4938035;29;20288;-81
2020/12/09 00:14:13;;;;;;;61.07;36.40;;;4.50;99.90;;;;;;4920372;29;20181;-82
2020/12/09 00:16:39;;;;;;;59.23;36.27;;;4.70;99.90;;;;;;4922891;29;20188;-83
2020/12/09 00:19:06;;;;;;;59.73;36.60;;;4.60;99.90;;;;;;4921859;29;20174;-83
2020/12/09 00:21:33;;;;;;;55.60;34.53;;;4.70;99.90;;;;;;4921374;29;20204;-82
2020/12/09 00:23:59;;;;;;;55.63;34.77;;;4.60;99.90;;;;;;4923777;29;20205;-82
2020/12/09 00:26:26;;;;;;;54.83;33.27;;;4.40;99.90;;;;;;4937870;29;20201;-81
2020/12/09 00:28:54;;;;;;;49.97;33.53;;;4.30;99.90;;;;;;4949589;29;20184;-81
2020/12/09 00:31:27;;;;;;;51.03;31.27;;;4.10;99.90;;;;;;4956380;29;20208;-80
2020/12/09 00:33:54;;;;;;;48.43;32.03;;;4.20;99.90;;;;;;4955068;29;20631;-81
2020/12/09 00:36:22;;;;;;;49.83;31.03;;;4.20;99.90;;;;;;4950284;29;20185;-82
2020/12/09 00:38:50;;;;;;;48.13;30.73;;;4.20;99.90;;;;;;4948762;29;20169;-82
2020/12/09 00:41:20;;;;;;;43.93;30.83;;;4.20;99.90;;;;;;4946892;29;20173;-82
2020/12/09 00:43:46;;;;;;;46.97;30.43;;;4.20;99.90;;;;;;4952208;29;20204;-81
2020/12/09 00:46:17;;;;;;;48.10;31.63;;;4.20;99.90;;;;;;4957406;29;20240;-80
2020/12/09 00:48:43;;;;;;;41.17;28.00;;;4.20;99.90;;;;;;4957741;29;20169;-82
2020/12/09 00:51:51;;;;;;;41.97;29.13;;;4.20;99.90;;;;;;4954378;29;20232;-84
2020/12/09 00:54:23;;;;;;;44.80;28.43;;;4.40;99.90;;;;;;4941447;29;20232;-82
2020/12/09 00:56:49;;;;;;;47.20;27.73;;;4.20;99.90;;;;;;4944122;29;20211;-82
2020/12/09 00:59:15;;;;;;;47.60;31.03;;;4.10;99.90;;;;;;4940527;29;20242;-82
2020/12/09 01:01:41;;;;;;;53.47;29.77;;;4.10;99.90;;;;;;4940945;29;20262;-83
2020/12/09 01:04:07;;;;;;;42.33;28.97;;;4.00;99.90;;;;;;4940029;29;20564;-81
2020/12/09 01:06:34;;;;;;;48.23;28.53;;;4.00;99.90;;;;;;4939793;29;20185;-82
2020/12/09 01:09:03;;;;;;;47.40;28.60;;;3.90;99.90;;;;;;4940497;29;20259;-83
2020/12/09 01:11:29;;;;;;;44.87;27.57;;;4.00;99.90;;;;;;4938887;29;20217;-84
2020/12/09 01:13:55;;;;;;;45.93;27.23;;;3.90;99.90;;;;;;4939824;29;20165;-82
2020/12/09 01:16:20;;;;;;;45.30;29.40;;;3.80;99.90;;;;;;4940926;29;20173;-81
2020/12/09 01:18:48;;;;;;;46.23;29.47;;;3.90;99.90;;;;;;4940108;29;20177;-82
2020/12/09 01:21:14;;;;;;;47.33;29.47;;;3.90;99.90;;;;;;4939370;29;20173;-82
2020/12/09 01:23:39;;;;;;;49.37;29.53;;;3.90;99.90;;;;;;4939982;29;20173;-83
2020/12/09 01:26:13;;;;;;;49.50;30.27;;;3.90;99.90;;;;;;4938951;29;20185;-82
2020/12/09 01:28:39;;;;;;;48.30;29.37;;;3.80;99.90;;;;;;4938552;29;20203;-83
2020/12/09 01:31:05;;;;;;;47.70;29.07;;;3.70;99.90;;;;;;4939413;29;20263;-82
2020/12/09 01:33:31;;;;;;;43.67;27.40;;;3.80;99.90;;;;;;4939111;29;20173;-82
2020/12/09 01:35:56;;;;;;;47.73;27.03;;;3.90;99.90;;;;;;4937756;29;20611;-82
2020/12/09 01:38:22;;;;;;;47.67;28.37;;;3.70;99.90;;;;;;4939372;29;20205;-83
2020/12/09 01:40:48;;;;;;;44.00;27.30;;;3.70;99.90;;;;;;4939323;29;20504;-81
